Terminal Aerodrome Forecast
Issued by NWS

Home | Current Version | Previous Version | Text Only | Print | Product List | Glossary On
Versions: 1 2 3 4 5 6 7 8 9 10 11 12 13 14 15 16 17 18 19 20 21 22 23 24 25 26
000
FTUS43 KLOT 270303 AAA
TAFMDW
TAF AMD
KMDW 270303Z 2703/2806 16006KT P6SM SCT250
     FM270500 21006KT P6SM BKN120
     FM270900 35010G18KT P6SM SCT020 BKN080
     FM271100 36010KT P6SM SCT025
     FM271700 28007KT P6SM FEW250
     FM272100 24012G18KT 6SM -SHRA BKN090
     FM280000 07012KT P6SM VCSH BKN020=

USA.gov is the U.S. government's official web portal to all federal, state and local government web resources and services.